createdAt,value
2018-11-25T00:01:46.900Z,100877.97
2018-11-25T00:04:51.090Z,100883.97
2018-11-25T00:07:54.953Z,100877.22
2018-11-25T00:10:58.805Z,100875.11
2018-11-25T00:14:03.174Z,100872.98
2018-11-25T00:17:07.350Z,100871.77
2018-11-25T00:20:12.955Z,100870.00
2018-11-25T00:23:16.797Z,100867.06
2018-11-25T00:26:20.645Z,100863.25
2018-11-25T00:29:24.505Z,100863.34
2018-11-25T00:32:28.353Z,100866.26
2018-11-25T00:35:32.773Z,100867.52
2018-11-25T00:38:36.621Z,100866.14
2018-11-25T00:41:40.464Z,100871.65
2018-11-25T00:44:44.317Z,100861.90
2018-11-25T00:47:49.408Z,100864.78
2018-11-25T00:50:53.256Z,100864.37
2018-11-25T00:53:57.282Z,100859.36
2018-11-25T00:57:01.134Z,100858.43
2018-11-25T01:00:07.817Z,100860.28
2018-11-25T01:03:11.669Z,100846.23
2018-11-25T01:06:15.853Z,100848.86
2018-11-25T01:09:19.942Z,100846.31
2018-11-25T01:12:24.086Z,100843.00
2018-11-25T01:15:28.452Z,100845.52
2018-11-25T01:18:32.310Z,100851.42
2018-11-25T01:21:36.344Z,100852.63
2018-11-25T01:24:40.532Z,100845.11
2018-11-25T01:27:44.796Z,100853.16
2018-11-25T01:30:48.648Z,100851.80
2018-11-25T01:33:52.508Z,100859.04
2018-11-25T01:36:56.354Z,100850.59
2018-11-25T01:40:00.189Z,100850.96
2018-11-25T01:43:04.229Z,100851.45
2018-11-25T01:46:08.598Z,100850.22
2018-11-25T01:49:12.620Z,100842.14
2018-11-25T01:52:16.653Z,100844.73
2018-11-25T01:55:20.848Z,100842.56
2018-11-25T01:58:24.689Z,100841.79
2018-11-25T02:01:28.865Z,100842.56
2018-11-25T02:04:32.892Z,100837.92
2018-11-25T02:07:37.273Z,100843.03
2018-11-25T02:10:41.442Z,100842.20
2018-11-25T02:13:45.628Z,100839.16
2018-11-25T02:16:49.990Z,100837.12
2018-11-25T02:19:53.833Z,100830.77
2018-11-25T02:22:57.684Z,100826.97
2018-11-25T02:26:01.863Z,100836.69
2018-11-25T02:29:06.242Z,100838.79
2018-11-25T02:32:10.085Z,100833.74
2018-11-25T02:35:14.947Z,100832.91
2018-11-25T02:38:19.307Z,100836.72
2018-11-25T02:41:23.172Z,100833.74
2018-11-25T02:44:27.021Z,100832.47
2018-11-25T02:47:30.875Z,100828.72
2018-11-25T02:50:34.910Z,100828.23
2018-11-25T02:53:38.762Z,100834.20
2018-11-25T02:56:42.604Z,100821.91
2018-11-25T02:59:46.462Z,100826.56
2018-11-25T03:02:51.058Z,100822.72
2018-11-25T03:05:54.908Z,100826.25
2018-11-25T03:08:58.759Z,100825.72
2018-11-25T03:12:02.608Z,100826.59
2018-11-25T03:15:09.388Z,100817.70
2018-11-25T03:18:13.238Z,100818.51
2018-11-25T03:21:17.276Z,100815.16
2018-11-25T03:24:21.629Z,100819.87
2018-11-25T03:27:25.664Z,100819.34
2018-11-25T03:30:29.849Z,100817.77
2018-11-25T03:33:33.705Z,100819.87
2018-11-25T03:36:37.564Z,100823.21
2018-11-25T03:39:41.598Z,100823.19
2018-11-25T03:42:45.432Z,100820.24
2018-11-25T03:45:49.463Z,100826.19
2018-11-25T03:48:53.489Z,100823.59
2018-11-25T03:51:57.349Z,100825.72
2018-11-25T03:55:01.206Z,100823.16
2018-11-25T03:58:05.301Z,100826.50
2018-11-25T04:01:09.154Z,100828.58
2018-11-25T04:04:13.539Z,100828.17
2018-11-25T04:07:17.877Z,100813.28
2018-11-25T04:10:21.734Z,100814.67
2018-11-25T04:13:25.752Z,100813.75
2018-11-25T04:16:29.611Z,100817.62
2018-11-25T04:19:33.788Z,100807.03
2018-11-25T04:22:38.665Z,100807.00
2018-11-25T04:25:42.529Z,100813.37
2018-11-25T04:28:46.907Z,100808.77
2018-11-25T04:31:51.339Z,100814.18
2018-11-25T04:34:55.369Z,100812.16
2018-11-25T04:37:59.227Z,100804.95
2018-11-25T04:41:03.069Z,100806.59
2018-11-25T04:44:07.169Z,100805.39
2018-11-25T04:47:11.214Z,100808.77
2018-11-25T04:50:21.397Z,100810.03
2018-11-25T04:53:25.252Z,100806.19
2018-11-25T04:56:29.277Z,100809.13
2018-11-25T04:59:33.133Z,100804.48
2018-11-25T05:02:36.980Z,100798.58
2018-11-25T05:05:40.838Z,100799.04
2018-11-25T05:08:44.685Z,100803.66
2018-11-25T05:11:54.873Z,100804.83
2018-11-25T05:14:58.732Z,100801.92
2018-11-25T05:18:03.091Z,100802.78
2018-11-25T05:21:07.271Z,100804.92
2018-11-25T05:24:11.112Z,100804.89
2018-11-25T05:27:15.299Z,100804.52
2018-11-25T05:30:20.245Z,100810.03
2018-11-25T05:33:24.089Z,100816.87
2018-11-25T05:36:28.122Z,100814.30
2018-11-25T05:39:32.144Z,100807.83
2018-11-25T05:42:36.003Z,100812.16
2018-11-25T05:45:40.064Z,100812.91
2018-11-25T05:48:43.912Z,100810.84
2018-11-25T05:51:47.771Z,100810.00
2018-11-25T05:54:51.605Z,100814.61
2018-11-25T05:57:55.790Z,100813.34
2018-11-25T06:00:59.638Z,100811.20
2018-11-25T06:04:03.477Z,100814.18
2018-11-25T06:07:07.738Z,100817.06
2018-11-25T06:10:12.531Z,100821.27
2018-11-25T06:13:16.618Z,100819.56
2018-11-25T06:16:20.658Z,100813.16
2018-11-25T06:19:24.518Z,100808.58
2018-11-25T06:22:28.548Z,100812.36
2018-11-25T06:25:32.416Z,100811.55
2018-11-25T06:28:36.441Z,100816.28
2018-11-25T06:31:40.297Z,100820.81
2018-11-25T06:34:44.156Z,100824.25
2018-11-25T06:37:48.370Z,100827.65
2018-11-25T06:40:52.441Z,100833.69
2018-11-25T06:43:56.289Z,100835.73
2018-11-25T06:47:00.330Z,100839.51
2018-11-25T06:50:05.409Z,100839.53
2018-11-25T06:53:09.649Z,100838.27
2018-11-25T06:56:13.512Z,100844.53
2018-11-25T06:59:17.540Z,100841.16
2018-11-25T07:02:21.564Z,100844.62
2018-11-25T07:05:25.427Z,100854.71
2018-11-25T07:08:29.801Z,100852.17
2018-11-25T07:11:33.669Z,100858.49
2018-11-25T07:14:37.536Z,100865.59
2018-11-25T07:17:41.560Z,100857.50
2018-11-25T07:20:45.426Z,100861.41
2018-11-25T07:23:49.281Z,100860.14
2018-11-25T07:26:53.324Z,100858.03
2018-11-25T07:29:57.358Z,100865.62
2018-11-25T07:33:01.214Z,100872.00
2018-11-25T07:36:06.014Z,100867.64
2018-11-25T07:39:09.878Z,100872.25
2018-11-25T07:42:13.746Z,100877.87
2018-11-25T07:45:18.637Z,100882.50
2018-11-25T07:48:22.493Z,100879.88
2018-11-25T07:51:26.553Z,100881.98
2018-11-25T07:54:30.597Z,100892.20
2018-11-25T07:57:34.467Z,100890.34
2018-11-25T08:00:38.545Z,100889.05
2018-11-25T08:03:42.630Z,100886.47
2018-11-25T08:06:46.657Z,100888.64
2018-11-25T08:09:50.516Z,100885.72
2018-11-25T08:12:54.548Z,100888.20
2018-11-25T08:15:58.416Z,100893.63
2018-11-25T08:19:02.453Z,100891.95
2018-11-25T08:22:06.488Z,100887.22
2018-11-25T08:25:12.281Z,100885.05
2018-11-25T08:28:16.124Z,100891.80
2018-11-25T08:31:19.992Z,100888.80
2018-11-25T08:34:24.038Z,100887.93
2018-11-25T08:37:27.893Z,100889.54
2018-11-25T08:40:32.180Z,100891.21
2018-11-25T08:43:36.204Z,100894.16
2018-11-25T08:46:40.247Z,100889.47
2018-11-25T08:49:44.292Z,100888.98
2018-11-25T08:52:50.986Z,100887.30
2018-11-25T08:55:55.026Z,100896.57
2018-11-25T08:58:58.876Z,100893.09
2018-11-25T09:02:03.082Z,100900.25
2018-11-25T09:05:08.034Z,100906.94
2018-11-25T09:08:12.405Z,100900.59
2018-11-25T09:11:16.276Z,100900.52
2018-11-25T09:14:20.326Z,100903.47
2018-11-25T09:17:24.185Z,100908.45
2018-11-25T09:20:28.478Z,100913.91
2018-11-25T09:23:32.528Z,100911.76
2018-11-25T09:26:36.381Z,100904.09
2018-11-25T09:29:40.245Z,100910.79
2018-11-25T09:32:44.135Z,100905.67
2018-11-25T09:35:48.187Z,100906.11
2018-11-25T09:38:52.053Z,100909.02
2018-11-25T09:41:55.903Z,100899.24
2018-11-25T09:44:59.943Z,100905.13
2018-11-25T09:48:03.805Z,100900.84
2018-11-25T09:51:07.714Z,100902.92
2018-11-25T09:54:11.748Z,100902.02
2018-11-25T09:57:15.941Z,100898.60
2018-11-25T10:00:22.594Z,100898.16
2018-11-25T10:03:26.630Z,100893.48
2018-11-25T10:06:30.491Z,100891.30
2018-11-25T10:09:34.673Z,100891.26
2018-11-25T10:12:38.530Z,100888.68
2018-11-25T10:15:42.411Z,100891.59
2018-11-25T10:18:46.244Z,100888.13
2018-11-25T10:21:50.100Z,100888.53
2018-11-25T10:24:54.133Z,100887.19
2018-11-25T10:27:58.178Z,100887.98
2018-11-25T10:31:02.202Z,100891.33
2018-11-25T10:34:06.229Z,100886.59
2018-11-25T10:37:10.285Z,100884.85
2018-11-25T10:40:15.585Z,100884.38
2018-11-25T10:43:19.745Z,100880.96
2018-11-25T10:46:23.593Z,100884.73
2018-11-25T10:49:27.625Z,100882.99
2018-11-25T10:52:31.465Z,100871.10
2018-11-25T10:55:35.499Z,100873.61
2018-11-25T10:58:39.523Z,100872.26
2018-11-25T11:01:53.570Z,100870.52
2018-11-25T11:05:03.069Z,100874.76
2018-11-25T11:08:07.779Z,100874.25
2018-11-25T11:11:11.806Z,100872.94
2018-11-25T11:14:15.679Z,100875.00
2018-11-25T11:17:20.054Z,100875.41
2018-11-25T11:20:24.334Z,100874.52
2018-11-25T11:23:28.514Z,100876.16
2018-11-25T11:26:32.376Z,100874.44
2018-11-25T11:29:36.421Z,100873.09
2018-11-25T11:32:42.260Z,100869.70
2018-11-25T11:35:46.629Z,100867.56
2018-11-25T11:38:50.826Z,100870.91
2018-11-25T11:41:54.677Z,100869.19
2018-11-25T11:44:58.538Z,100870.02
2018-11-25T11:48:02.407Z,100872.52
2018-11-25T11:51:06.246Z,100874.20
2018-11-25T11:54:10.131Z,100869.94
2018-11-25T11:57:14.189Z,100866.91
2018-11-25T12:00:22.393Z,100862.22
2018-11-25T12:03:26.799Z,100866.88
2018-11-25T12:06:30.414Z,100862.62
2018-11-25T12:09:34.270Z,100864.64
2018-11-25T12:12:39.685Z,100867.62
2018-11-25T12:15:43.793Z,100872.72
2018-11-25T12:18:47.982Z,100868.85
2018-11-25T12:21:58.113Z,100868.02
2018-11-25T12:24:56.506Z,100876.93
2018-11-25T12:28:00.569Z,100873.03
2018-11-25T12:31:04.989Z,100871.75
2018-11-25T12:34:09.037Z,100878.04
2018-11-25T12:37:13.237Z,100878.04
2018-11-25T12:40:18.395Z,100872.95
2018-11-25T12:43:22.277Z,100876.28
2018-11-25T12:46:26.132Z,100871.20
2018-11-25T12:49:29.993Z,100873.73
2018-11-25T12:52:34.153Z,100868.20
2018-11-25T12:55:37.998Z,100872.42
2018-11-25T12:58:42.447Z,100871.55
2018-11-25T13:01:46.288Z,100872.34
2018-11-25T13:04:50.155Z,100875.28
2018-11-25T13:07:53.998Z,100869.31
2018-11-25T13:10:57.853Z,100877.78
2018-11-25T13:14:01.704Z,100882.44
2018-11-25T13:17:05.548Z,100882.00
2018-11-25T13:20:11.938Z,100883.27
2018-11-25T13:23:15.819Z,100881.16
2018-11-25T13:26:20.015Z,100887.89
2018-11-25T13:29:23.873Z,100889.60
2018-11-25T13:32:28.889Z,100883.23
2018-11-25T13:35:35.647Z,100881.52
2018-11-25T13:38:39.699Z,100879.41
2018-11-25T13:41:43.561Z,100875.14
2018-11-25T13:44:46.425Z,100881.52
2018-11-25T13:47:50.297Z,100885.33
2018-11-25T13:50:54.161Z,100892.09
2018-11-25T13:53:59.630Z,100894.60
2018-11-25T13:57:03.482Z,100889.55
2018-11-25T14:03:45.223Z,100892.49
2018-11-25T14:06:49.257Z,100897.94
2018-11-25T14:09:53.197Z,100901.80
2018-11-25T14:12:57.056Z,100902.25
2018-11-25T14:16:00.959Z,100903.92
2018-11-25T14:19:04.889Z,100903.52
2018-11-25T14:22:09.353Z,100909.01
2018-11-25T14:25:14.993Z,100912.83
2018-11-25T14:28:18.944Z,100909.01
2018-11-25T14:31:22.813Z,100906.91
2018-11-25T14:34:27.195Z,100898.86
2018-11-25T14:37:31.234Z,100904.80
2018-11-25T14:40:35.082Z,100906.51
2018-11-25T14:43:38.922Z,100903.12
2018-11-25T14:46:42.798Z,100901.02
2018-11-25T14:49:46.637Z,100903.12
2018-11-25T14:52:51.648Z,100901.14
2018-11-25T14:55:56.021Z,100898.60
2018-11-25T14:59:00.051Z,100898.24
2018-11-25T15:02:04.244Z,100895.78
2018-11-25T15:05:11.901Z,100889.02
2018-11-25T15:08:19.568Z,100892.00
2018-11-25T15:11:23.414Z,100886.52
2018-11-25T15:14:27.261Z,100880.59
2018-11-25T15:17:31.461Z,100883.61
2018-11-25T15:20:35.498Z,100877.28
2018-11-25T15:23:39.603Z,100871.40
2018-11-25T15:26:43.640Z,100873.55
2018-11-25T15:29:47.488Z,100871.09
2018-11-25T15:32:51.531Z,100875.31
2018-11-25T15:35:55.549Z,100876.74
2018-11-25T15:38:59.398Z,100878.89
2018-11-25T15:42:03.258Z,100879.37
2018-11-25T15:45:09.203Z,100871.37
2018-11-25T15:48:19.991Z,100870.27
2018-11-25T15:51:23.842Z,100871.22
2018-11-25T15:54:28.070Z,100871.27
2018-11-25T15:57:31.901Z,100877.23
2018-11-25T16:00:35.817Z,100878.19
2018-11-25T16:03:39.881Z,100877.42
2018-11-25T16:06:44.234Z,100883.06
2018-11-25T16:09:48.284Z,100884.81
2018-11-25T16:12:52.668Z,100881.88
2018-11-25T16:15:56.768Z,100894.75
2018-11-25T16:19:00.615Z,100890.53
2018-11-25T16:22:05.107Z,100894.86
2018-11-25T16:25:14.602Z,100893.70
2018-11-25T16:28:35.122Z,100893.51
2018-11-25T16:31:39.146Z,100893.98
2018-11-25T16:34:42.993Z,100892.78
2018-11-25T16:37:46.842Z,100892.45
2018-11-25T16:40:50.842Z,100897.24
2018-11-25T16:43:54.681Z,100903.37
2018-11-25T16:46:58.537Z,100904.23
2018-11-25T16:50:02.382Z,100900.09
2018-11-25T16:53:06.925Z,100904.41
2018-11-25T16:56:10.953Z,100905.80
2018-11-25T16:59:21.057Z,100909.27
2018-11-25T17:02:24.904Z,100910.64
2018-11-25T17:05:31.482Z,100905.16
2018-11-25T17:08:38.341Z,100905.13
2018-11-25T17:11:42.361Z,100905.74
2018-11-25T17:14:46.406Z,100902.83
2018-11-25T17:17:50.452Z,100905.48
2018-11-25T17:20:54.834Z,100905.15
2018-11-25T17:23:59.037Z,100906.88
2018-11-25T17:27:03.485Z,100904.86
2018-11-25T17:30:14.901Z,100909.56
2018-11-25T17:33:19.088Z,100910.02
2018-11-25T17:36:23.134Z,100913.92
2018-11-25T17:39:26.985Z,100917.78
2018-11-25T17:42:31.189Z,100922.00
2018-11-25T17:45:35.038Z,100932.56
2018-11-25T17:48:38.884Z,100933.13
2018-11-25T17:51:42.741Z,100933.18
2018-11-25T17:54:46.606Z,100932.77
2018-11-25T17:57:50.633Z,100928.56
2018-11-25T18:00:59.775Z,100937.98
2018-11-25T18:04:03.622Z,100935.80
2018-11-25T18:07:07.814Z,100939.66
2018-11-25T18:10:12.985Z,100936.81
2018-11-25T18:13:18.388Z,100934.71
2018-11-25T18:16:22.753Z,100940.27
2018-11-25T18:19:27.141Z,100948.71
2018-11-25T18:22:31.273Z,100942.92
2018-11-25T18:25:35.468Z,100946.30
2018-11-25T18:28:39.324Z,100945.53
2018-11-25T18:31:43.340Z,100949.74
2018-11-25T18:34:47.191Z,100954.46
2018-11-25T18:37:51.038Z,100959.08
2018-11-25T18:40:55.065Z,100965.08
2018-11-25T18:43:58.913Z,100963.06
2018-11-25T18:47:02.765Z,100966.44
2018-11-25T18:50:10.153Z,100963.94
2018-11-25T18:53:14.034Z,100966.93
2018-11-25T18:56:18.414Z,100967.31
2018-11-25T18:59:22.274Z,100966.52
2018-11-25T19:02:33.276Z,100964.42
2018-11-25T19:05:37.478Z,100970.06
2018-11-25T19:08:41.514Z,100972.97
2018-11-25T19:11:45.589Z,100978.11
2018-11-25T19:14:49.969Z,100979.87
2018-11-25T19:17:54.171Z,100983.70
2018-11-25T19:20:58.049Z,100977.73
2018-11-25T19:24:01.929Z,100983.72
2018-11-25T19:27:06.540Z,100977.86
2018-11-25T19:30:14.062Z,100979.94
2018-11-25T19:33:18.109Z,100980.44
2018-11-25T19:36:21.953Z,100986.73
2018-11-25T19:39:26.017Z,100987.22
2018-11-25T19:42:30.065Z,100983.52
2018-11-25T19:45:33.972Z,100988.62
2018-11-25T19:48:37.832Z,100994.05
2018-11-25T19:51:41.684Z,100991.12
2018-11-25T19:54:45.556Z,100994.50
2018-11-25T19:57:49.406Z,100992.83
2018-11-25T20:00:53.261Z,100994.61
2018-11-25T20:03:57.152Z,100988.25
2018-11-25T20:07:01.005Z,100994.53
2018-11-25T20:10:05.758Z,100997.56
2018-11-25T20:13:11.836Z,100995.48
2018-11-25T20:16:20.025Z,100992.95
2018-11-25T20:19:24.208Z,100987.45
2018-11-25T20:22:28.414Z,100990.02
2018-11-25T20:25:32.264Z,100989.19
2018-11-25T20:28:36.293Z,100991.36
2018-11-25T20:31:40.149Z,100987.13
2018-11-25T20:34:44.022Z,100988.84
2018-11-25T20:37:53.767Z,100988.84
2018-11-25T20:40:57.680Z,100997.72
2018-11-25T20:44:01.534Z,100999.89
2018-11-25T20:47:08.086Z,101000.75
2018-11-25T20:50:11.943Z,101002.87
2018-11-25T20:53:21.297Z,101005.42
2018-11-25T20:56:25.165Z,101011.27
2018-11-25T20:59:29.021Z,101012.12
2018-11-25T21:02:32.870Z,101015.12
2018-11-25T21:05:36.891Z,101012.53
2018-11-25T21:08:40.926Z,101013.00
2018-11-25T21:11:44.794Z,101010.91
2018-11-25T21:14:48.817Z,101005.48
2018-11-25T21:17:52.672Z,101009.66
2018-11-25T21:20:56.516Z,101009.23
2018-11-25T21:24:00.563Z,101014.33
2018-11-25T21:27:04.402Z,101012.20
2018-11-25T21:30:11.840Z,101010.08
2018-11-25T21:33:15.900Z,101012.53
2018-11-25T21:36:19.717Z,101008.73
2018-11-25T21:39:23.568Z,101007.08
2018-11-25T21:42:27.405Z,101012.06
2018-11-25T21:45:31.589Z,101008.23
2018-11-25T21:48:35.768Z,101009.88
2018-11-25T21:51:39.798Z,101011.15
2018-11-25T21:54:43.647Z,101012.77
2018-11-25T21:57:47.493Z,101014.86
2018-11-25T22:00:51.526Z,101005.52
2018-11-25T22:03:55.749Z,101006.26
2018-11-25T22:06:59.932Z,101015.50
2018-11-25T22:10:03.830Z,101012.00
2018-11-25T22:13:08.193Z,101006.86
2018-11-25T22:16:12.373Z,101005.11
2018-11-25T22:19:16.402Z,101002.09
2018-11-25T22:22:20.430Z,101004.56
2018-11-25T22:25:24.627Z,101001.12
2018-11-25T22:28:28.645Z,100997.72
2018-11-25T22:31:32.824Z,101006.09
2018-11-25T22:34:36.681Z,101006.50
2018-11-25T22:37:40.546Z,100998.05
2018-11-25T22:40:44.731Z,100997.62
2018-11-25T22:43:48.582Z,100992.55
2018-11-25T22:46:52.424Z,101006.50
2018-11-25T22:49:56.625Z,101013.70
2018-11-25T22:53:00.705Z,101015.84
2018-11-25T22:56:04.788Z,101015.39
2018-11-25T22:59:08.963Z,101015.38
2018-11-25T23:02:13.000Z,101008.59
2018-11-25T23:05:28.378Z,101003.93
2018-11-25T23:08:32.221Z,101004.34
2018-11-25T23:11:36.265Z,101004.31
2018-11-25T23:14:40.281Z,100994.13
2018-11-25T23:17:44.480Z,100999.60
2018-11-25T23:20:48.921Z,101000.00
2018-11-25T23:23:52.763Z,101003.39
2018-11-25T23:26:56.608Z,101005.48
2018-11-25T23:30:00.791Z,101011.80
2018-11-25T23:33:04.939Z,101010.09
2018-11-25T23:36:08.796Z,101016.03
2018-11-25T23:39:12.633Z,101023.19
2018-11-25T23:42:16.479Z,101021.08
2018-11-25T23:45:20.324Z,101021.11
2018-11-25T23:48:24.504Z,101022.33
2018-11-25T23:51:28.917Z,101022.71
2018-11-25T23:54:33.013Z,101027.80
2018-11-25T23:57:36.862Z,101024.78
